createdAt,value
2022-10-11T00:00:34.087Z,15.35
2022-10-11T00:10:35.412Z,14.68
2022-10-11T00:20:36.743Z,10.27
2022-10-11T00:30:38.095Z,10.32
2022-10-11T00:40:39.440Z,12.65
2022-10-11T00:50:40.740Z,15.25
2022-10-11T01:00:42.778Z,14.20
2022-10-11T01:10:44.126Z,14.93
2022-10-11T01:20:45.747Z,15.85
2022-10-11T01:30:47.065Z,18.88
2022-10-11T01:40:48.416Z,16.52
2022-10-11T01:50:49.770Z,16.75
2022-10-11T02:00:51.254Z,17.95
2022-10-11T02:10:52.850Z,18.15
2022-10-11T02:20:54.159Z,24.38
2022-10-11T02:30:55.467Z,23.92
2022-10-11T02:40:56.771Z,27.42
2022-10-11T02:50:58.167Z,19.73
2022-10-11T03:00:59.771Z,23.45
2022-10-11T03:11:01.086Z,26.75
2022-10-11T03:21:02.455Z,29.10
2022-10-11T03:31:03.809Z,31.77
2022-10-11T03:41:05.141Z,30.77
2022-10-11T03:51:06.462Z,32.33
2022-10-11T04:01:07.801Z,33.47
2022-10-11T04:11:09.117Z,34.33
2022-10-11T04:21:10.449Z,33.92
2022-10-11T04:31:11.816Z,37.40
2022-10-11T04:41:13.188Z,27.20
2022-10-11T04:51:14.545Z,27.25
2022-10-11T05:01:16.123Z,25.27
2022-10-11T05:11:17.547Z,23.90
2022-10-11T05:21:18.854Z,25.92
2022-10-11T05:31:20.249Z,15.88
2022-10-11T05:41:21.639Z,18.70
2022-10-11T05:51:22.991Z,15.77
2022-10-11T06:01:24.451Z,13.40
2022-10-11T06:11:25.876Z,12.63
2022-10-11T06:21:27.206Z,10.90
2022-10-11T06:31:28.585Z,10.73
2022-10-11T06:41:29.892Z,10.63
2022-10-11T06:51:31.254Z,10.00
2022-10-11T07:01:32.832Z,14.13
2022-10-11T07:11:34.130Z,13.75
2022-10-11T07:21:35.527Z,14.02
2022-10-11T07:31:36.874Z,13.63
2022-10-11T07:41:44.623Z,17.17
2022-10-11T07:51:46.892Z,16.13
2022-10-11T08:01:48.327Z,14.15
2022-10-11T08:11:49.702Z,12.18
2022-10-11T08:21:51.050Z,11.13
2022-10-11T08:31:52.706Z,8.95
2022-10-11T08:41:54.168Z,12.27
2022-10-11T08:52:00.057Z,10.32
2022-10-11T09:02:01.582Z,11.63
2022-10-11T09:12:03.404Z,16.25
2022-10-11T09:22:04.712Z,12.07
2022-10-11T09:32:06.039Z,11.52
2022-10-11T09:42:07.909Z,17.33
2022-10-11T09:52:09.267Z,10.40
2022-10-11T10:02:10.651Z,14.77
2022-10-11T10:12:12.179Z,10.23
2022-10-11T10:22:13.520Z,9.80
2022-10-11T10:32:15.428Z,11.98
2022-10-11T10:42:16.875Z,10.68
2022-10-11T10:52:18.509Z,12.68
2022-10-11T11:02:40.753Z,12.82
2022-10-11T11:12:41.456Z,11.95
2022-10-11T11:22:42.844Z,13.40
2022-10-11T11:32:45.853Z,13.13
2022-10-11T11:42:47.432Z,14.60
2022-10-11T11:52:48.755Z,11.85
2022-10-11T12:02:50.137Z,14.73
2022-10-11T12:12:51.404Z,18.92
2022-10-11T12:22:52.660Z,11.23
2022-10-11T12:32:54.021Z,10.98
2022-10-11T12:42:55.392Z,12.07
2022-10-11T12:52:56.637Z,13.43
2022-10-11T13:02:58.069Z,11.68
2022-10-11T13:13:00.114Z,16.00
2022-10-11T13:23:01.623Z,13.02
2022-10-11T13:33:03.009Z,11.85
2022-10-11T13:43:05.167Z,16.02
2022-10-11T13:53:06.518Z,12.88
2022-10-11T14:03:07.909Z,9.32
2022-10-11T14:13:09.197Z,12.15
2022-10-11T14:23:10.672Z,13.57
2022-10-11T14:33:11.987Z,10.43
2022-10-11T14:43:13.228Z,10.77
2022-10-11T14:53:14.484Z,8.02
2022-10-11T15:03:15.753Z,12.45
2022-10-11T15:13:17.004Z,10.07
2022-10-11T15:23:18.589Z,15.40
2022-10-11T15:33:19.943Z,8.82
2022-10-11T15:43:24.730Z,9.95
2022-10-11T15:53:28.529Z,8.15
2022-10-11T16:03:30.049Z,13.82
2022-10-11T16:13:31.503Z,7.63
2022-10-11T16:23:33.859Z,9.40
2022-10-11T16:33:35.209Z,7.78
2022-10-11T16:43:36.536Z,10.50
2022-10-11T16:53:37.906Z,6.88
2022-10-11T17:03:39.276Z,11.65
2022-10-11T17:13:40.513Z,10.75
2022-10-11T17:23:41.928Z,15.43
2022-10-11T17:33:43.507Z,10.55
2022-10-11T17:43:44.864Z,8.98
2022-10-11T17:53:46.175Z,13.07
2022-10-11T18:03:47.921Z,9.90
2022-10-11T18:13:49.281Z,13.40
2022-10-11T18:23:50.591Z,11.05
2022-10-11T18:33:51.943Z,11.82
2022-10-11T18:43:53.312Z,12.70
2022-10-11T18:53:54.930Z,13.95
2022-10-11T19:03:59.238Z,12.65
2022-10-11T19:14:02.100Z,11.60
2022-10-11T19:24:03.473Z,15.07
2022-10-11T19:34:04.804Z,12.77
2022-10-11T19:44:07.475Z,12.48
2022-10-11T19:54:08.731Z,16.33
2022-10-11T20:04:18.806Z,11.57
2022-10-11T20:14:31.939Z,14.73
2022-10-11T20:24:35.345Z,14.95
2022-10-11T20:34:39.507Z,21.45
2022-10-11T20:44:40.891Z,9.67
2022-10-11T20:54:42.464Z,11.50
2022-10-11T21:04:44.258Z,12.52
2022-10-11T21:14:45.658Z,18.92
2022-10-11T21:24:46.979Z,12.82
2022-10-11T21:34:48.401Z,11.27
2022-10-11T21:44:49.766Z,13.15
2022-10-11T21:54:51.095Z,12.30
2022-10-11T22:04:52.518Z,14.20
2022-10-11T22:14:53.857Z,12.52
2022-10-11T22:24:55.205Z,11.20
2022-10-11T22:34:56.610Z,11.85
2022-10-11T22:44:57.932Z,15.75
2022-10-11T22:54:59.255Z,12.77
2022-10-11T23:05:00.623Z,11.63
2022-10-11T23:15:02.000Z,10.98
2022-10-11T23:25:03.367Z,9.55
2022-10-11T23:35:05.338Z,9.68
2022-10-11T23:45:06.701Z,19.13
2022-10-11T23:55:08.050Z,12.07
